Peshawar, Pakistan
Current Conditions -  °F | °C
As of 3:00 PM on Friday 31 Oct 2014 (Local Time) from OPPS Reporting Station
Haze Haze  
Wind Chill: 81°   Ceiling: 24000
Heat Index: 81°   Visibility: 3mi
Dew Point: 45°   Wind: 5mph
Humidity: 28%   Direction: 50°NE
Pressure: NA   Gusts: NA
Location:  34.01°N, 71.54°E
Report Text: OPPS 311000Z 05004KT 5000 HZ FEW100 BKN240 27/07 Q1015.8
Loading
Personal Weather Stations






























Interactive Weather Map
Tropical Storm Tracking
New forecast layout! Learn more

10-Day Weather Forecast

Advertisements
Track Severe Weather on mobile